sensor_id;sensor_type;location;lat;lon;timestamp;P1;durP1;ratioP1;P2;durP2;ratioP2
26102;SDS011;69760;49.380;8.998;2023-07-31T00:06:24;6.55;;;1.83;;
26102;SDS011;69760;49.380;8.998;2023-07-31T00:08:49;3.42;;;1.65;;
26102;SDS011;69760;49.380;8.998;2023-07-31T00:11:15;3.30;;;1.80;;
26102;SDS011;69760;49.380;8.998;2023-07-31T00:13:40;3.70;;;1.60;;
26102;SDS011;69760;49.380;8.998;2023-07-31T00:39:33;2.30;;;1.60;;
26102;SDS011;69760;49.380;8.998;2023-07-31T00:42:19;5.72;;;1.70;;
26102;SDS011;69760;49.380;8.998;2023-07-31T01:53:28;4.22;;;1.88;;
26102;SDS011;69760;49.380;8.998;2023-07-31T03:03:00;3.55;;;2.08;;
26102;SDS011;69760;49.380;8.998;2023-07-31T03:14:11;5.10;;;1.80;;
26102;SDS011;69760;49.380;8.998;2023-07-31T03:17:14;6.10;;;1.88;;
26102;SDS011;69760;49.380;8.998;2023-07-31T03:19:40;5.78;;;2.00;;
26102;SDS011;69760;49.380;8.998;2023-07-31T03:22:06;5.90;;;2.05;;
26102;SDS011;69760;49.380;8.998;2023-07-31T04:05:05;4.47;;;2.15;;
26102;SDS011;69760;49.380;8.998;2023-07-31T04:07:32;5.65;;;1.98;;
26102;SDS011;69760;49.380;8.998;2023-07-31T04:09:58;5.72;;;2.20;;
26102;SDS011;69760;49.380;8.998;2023-07-31T04:12:24;5.90;;;2.40;;
26102;SDS011;69760;49.380;8.998;2023-07-31T04:14:50;5.65;;;1.77;;
26102;SDS011;69760;49.380;8.998;2023-07-31T04:17:17;5.35;;;1.95;;
26102;SDS011;69760;49.380;8.998;2023-07-31T04:19:42;7.25;;;2.17;;
26102;SDS011;69760;49.380;8.998;2023-07-31T04:22:08;7.47;;;2.17;;
26102;SDS011;69760;49.380;8.998;2023-07-31T04:24:34;3.42;;;1.67;;
26102;SDS011;69760;49.380;8.998;2023-07-31T04:26:59;7.93;;;2.38;;
26102;SDS011;69760;49.380;8.998;2023-07-31T04:29:25;6.03;;;2.10;;
26102;SDS011;69760;49.380;8.998;2023-07-31T04:31:50;5.07;;;1.83;;
26102;SDS011;69760;49.380;8.998;2023-07-31T04:34:16;5.20;;;2.10;;
26102;SDS011;69760;49.380;8.998;2023-07-31T04:36:41;5.68;;;2.17;;
26102;SDS011;69760;49.380;8.998;2023-07-31T04:39:07;4.85;;;2.15;;
26102;SDS011;69760;49.380;8.998;2023-07-31T04:41:32;5.35;;;2.10;;
26102;SDS011;69760;49.380;8.998;2023-07-31T04:43:58;3.15;;;1.70;;
26102;SDS011;69760;49.380;8.998;2023-07-31T04:46:23;4.47;;;2.35;;
26102;SDS011;69760;49.380;8.998;2023-07-31T04:48:49;9.35;;;2.13;;
26102;SDS011;69760;49.380;8.998;2023-07-31T04:51:14;6.38;;;2.08;;
26102;SDS011;69760;49.380;8.998;2023-07-31T04:53:40;6.65;;;2.08;;
26102;SDS011;69760;49.380;8.998;2023-07-31T04:56:06;4.72;;;2.00;;
26102;SDS011;69760;49.380;8.998;2023-07-31T04:58:31;9.15;;;2.30;;
26102;SDS011;69760;49.380;8.998;2023-07-31T05:00:57;7.00;;;2.47;;
26102;SDS011;69760;49.380;8.998;2023-07-31T05:03:22;6.80;;;2.38;;
26102;SDS011;69760;49.380;8.998;2023-07-31T05:05:48;4.93;;;2.00;;
26102;SDS011;69760;49.380;8.998;2023-07-31T05:08:14;9.02;;;2.17;;
26102;SDS011;69760;49.380;8.998;2023-07-31T05:10:42;4.70;;;2.45;;
26102;SDS011;69760;49.380;8.998;2023-07-31T05:13:08;4.00;;;2.22;;
26102;SDS011;69760;49.380;8.998;2023-07-31T05:15:33;5.05;;;2.45;;
26102;SDS011;69760;49.380;8.998;2023-07-31T05:17:59;3.83;;;1.77;;
26102;SDS011;69760;49.380;8.998;2023-07-31T05:20:24;5.05;;;2.22;;
26102;SDS011;69760;49.380;8.998;2023-07-31T05:22:50;5.25;;;2.10;;
26102;SDS011;69760;49.380;8.998;2023-07-31T05:25:16;8.00;;;2.17;;
26102;SDS011;69760;49.380;8.998;2023-07-31T05:27:42;3.25;;;1.60;;
26102;SDS011;69760;49.380;8.998;2023-07-31T05:30:07;6.07;;;2.20;;
26102;SDS011;69760;49.380;8.998;2023-07-31T05:32:33;5.70;;;2.13;;
26102;SDS011;69760;49.380;8.998;2023-07-31T05:34:59;5.45;;;1.80;;
26102;SDS011;69760;49.380;8.998;2023-07-31T05:37:24;3.58;;;2.03;;
26102;SDS011;69760;49.380;8.998;2023-07-31T05:39:50;7.78;;;2.00;;
26102;SDS011;69760;49.380;8.998;2023-07-31T05:42:17;4.40;;;2.00;;
26102;SDS011;69760;49.380;8.998;2023-07-31T05:44:42;5.13;;;2.15;;
26102;SDS011;69760;49.380;8.998;2023-07-31T05:47:08;6.03;;;2.13;;
26102;SDS011;69760;49.380;8.998;2023-07-31T05:49:34;5.57;;;2.30;;
26102;SDS011;69760;49.380;8.998;2023-07-31T05:52:00;9.10;;;2.13;;
26102;SDS011;69760;49.380;8.998;2023-07-31T05:54:25;8.95;;;2.20;;
26102;SDS011;69760;49.380;8.998;2023-07-31T05:56:51;6.78;;;2.10;;
26102;SDS011;69760;49.380;8.998;2023-07-31T05:59:16;3.88;;;2.20;;
26102;SDS011;69760;49.380;8.998;2023-07-31T06:01:42;4.07;;;1.85;;
26102;SDS011;69760;49.380;8.998;2023-07-31T06:04:07;4.78;;;2.10;;
26102;SDS011;69760;49.380;8.998;2023-07-31T06:06:33;7.13;;;2.22;;
26102;SDS011;69760;49.380;8.998;2023-07-31T06:08:59;3.65;;;2.10;;
26102;SDS011;69760;49.380;8.998;2023-07-31T06:11:24;6.13;;;1.80;;
26102;SDS011;69760;49.380;8.998;2023-07-31T06:13:50;6.68;;;1.90;;
26102;SDS011;69760;49.380;8.998;2023-07-31T06:16:16;3.20;;;1.90;;
26102;SDS011;69760;49.380;8.998;2023-07-31T06:18:42;6.88;;;2.10;;
26102;SDS011;69760;49.380;8.998;2023-07-31T06:21:07;5.03;;;1.95;;
26102;SDS011;69760;49.380;8.998;2023-07-31T06:23:34;4.72;;;1.88;;
26102;SDS011;69760;49.380;8.998;2023-07-31T06:25:59;5.47;;;1.90;;
26102;SDS011;69760;49.380;8.998;2023-07-31T06:28:29;4.30;;;2.00;;
26102;SDS011;69760;49.380;8.998;2023-07-31T06:30:56;5.13;;;1.90;;
26102;SDS011;69760;49.380;8.998;2023-07-31T06:33:22;5.00;;;2.03;;
26102;SDS011;69760;49.380;8.998;2023-07-31T06:35:48;6.50;;;2.10;;
26102;SDS011;69760;49.380;8.998;2023-07-31T06:38:13;4.35;;;2.10;;
26102;SDS011;69760;49.380;8.998;2023-07-31T06:40:39;5.35;;;2.10;;
26102;SDS011;69760;49.380;8.998;2023-07-31T06:43:05;4.75;;;2.08;;
26102;SDS011;69760;49.380;8.998;2023-07-31T06:45:33;4.35;;;1.90;;
26102;SDS011;69760;49.380;8.998;2023-07-31T06:48:00;7.43;;;1.73;;
26102;SDS011;69760;49.380;8.998;2023-07-31T06:50:26;5.80;;;2.22;;
26102;SDS011;69760;49.380;8.998;2023-07-31T06:52:56;4.60;;;2.20;;
26102;SDS011;69760;49.380;8.998;2023-07-31T06:55:22;6.18;;;2.20;;
26102;SDS011;69760;49.380;8.998;2023-07-31T06:57:53;4.75;;;1.80;;
26102;SDS011;69760;49.380;8.998;2023-07-31T07:00:20;10.13;;;2.30;;
26102;SDS011;69760;49.380;8.998;2023-07-31T07:02:46;6.05;;;2.13;;
26102;SDS011;69760;49.380;8.998;2023-07-31T07:05:12;4.18;;;1.80;;
26102;SDS011;69760;49.380;8.998;2023-07-31T07:07:38;4.78;;;2.08;;
26102;SDS011;69760;49.380;8.998;2023-07-31T07:10:04;4.03;;;1.98;;
26102;SDS011;69760;49.380;8.998;2023-07-31T07:12:31;4.43;;;1.88;;
26102;SDS011;69760;49.380;8.998;2023-07-31T07:14:57;3.35;;;1.80;;
26102;SDS011;69760;49.380;8.998;2023-07-31T07:17:24;5.32;;;2.00;;
26102;SDS011;69760;49.380;8.998;2023-07-31T07:19:50;5.63;;;2.50;;
26102;SDS011;69760;49.380;8.998;2023-07-31T07:22:16;5.38;;;2.15;;
26102;SDS011;69760;49.380;8.998;2023-07-31T07:24:41;6.45;;;2.00;;
26102;SDS011;69760;49.380;8.998;2023-07-31T07:27:07;9.13;;;2.42;;
26102;SDS011;69760;49.380;8.998;2023-07-31T07:29:37;6.90;;;2.50;;
26102;SDS011;69760;49.380;8.998;2023-07-31T07:32:03;5.50;;;2.17;;
26102;SDS011;69760;49.380;8.998;2023-07-31T07:34:29;6.68;;;2.20;;
26102;SDS011;69760;49.380;8.998;2023-07-31T07:36:55;3.72;;;1.95;;
26102;SDS011;69760;49.380;8.998;2023-07-31T07:39:20;3.15;;;1.88;;
26102;SDS011;69760;49.380;8.998;2023-07-31T07:41:46;4.70;;;2.13;;
26102;SDS011;69760;49.380;8.998;2023-07-31T07:44:13;7.45;;;2.08;;
26102;SDS011;69760;49.380;8.998;2023-07-31T07:46:39;7.07;;;2.40;;
26102;SDS011;69760;49.380;8.998;2023-07-31T07:49:04;6.68;;;1.83;;
26102;SDS011;69760;49.380;8.998;2023-07-31T07:51:30;5.57;;;2.33;;
26102;SDS011;69760;49.380;8.998;2023-07-31T07:53:56;8.23;;;2.30;;
26102;SDS011;69760;49.380;8.998;2023-07-31T07:56:23;5.55;;;1.92;;
26102;SDS011;69760;49.380;8.998;2023-07-31T07:58:49;7.43;;;2.50;;
26102;SDS011;69760;49.380;8.998;2023-07-31T08:01:15;5.57;;;2.10;;
26102;SDS011;69760;49.380;8.998;2023-07-31T08:03:41;6.13;;;2.20;;
26102;SDS011;69760;49.380;8.998;2023-07-31T08:06:06;4.53;;;2.20;;
26102;SDS011;69760;49.380;8.998;2023-07-31T08:08:34;4.15;;;1.95;;
26102;SDS011;69760;49.380;8.998;2023-07-31T08:11:00;6.95;;;2.25;;
26102;SDS011;69760;49.380;8.998;2023-07-31T08:13:25;6.65;;;2.03;;
26102;SDS011;69760;49.380;8.998;2023-07-31T08:15:51;7.32;;;2.25;;
26102;SDS011;69760;49.380;8.998;2023-07-31T08:18:16;6.57;;;2.20;;
26102;SDS011;69760;49.380;8.998;2023-07-31T08:20:42;6.43;;;2.25;;
26102;SDS011;69760;49.380;8.998;2023-07-31T08:23:08;5.22;;;2.30;;
26102;SDS011;69760;49.380;8.998;2023-07-31T08:25:34;5.85;;;2.00;;
26102;SDS011;69760;49.380;8.998;2023-07-31T08:28:01;6.60;;;2.33;;
26102;SDS011;69760;49.380;8.998;2023-07-31T08:30:27;9.20;;;2.17;;
26102;SDS011;69760;49.380;8.998;2023-07-31T08:32:53;4.50;;;2.50;;
26102;SDS011;69760;49.380;8.998;2023-07-31T08:35:18;8.50;;;2.50;;
26102;SDS011;69760;49.380;8.998;2023-07-31T08:37:44;7.18;;;2.30;;
26102;SDS011;69760;49.380;8.998;2023-07-31T08:40:09;7.15;;;2.45;;
26102;SDS011;69760;49.380;8.998;2023-07-31T08:42:49;7.18;;;2.33;;
26102;SDS011;69760;49.380;8.998;2023-07-31T08:45:19;7.70;;;2.78;;
26102;SDS011;69760;49.380;8.998;2023-07-31T08:47:48;6.70;;;2.33;;
26102;SDS011;69760;49.380;8.998;2023-07-31T08:50:15;7.68;;;2.58;;
26102;SDS011;69760;49.380;8.998;2023-07-31T08:52:42;5.82;;;2.33;;
26102;SDS011;69760;49.380;8.998;2023-07-31T08:55:08;8.15;;;2.55;;
26102;SDS011;69760;49.380;8.998;2023-07-31T08:57:35;8.23;;;2.63;;
26102;SDS011;69760;49.380;8.998;2023-07-31T09:00:03;4.75;;;2.30;;
26102;SDS011;69760;49.380;8.998;2023-07-31T09:05:13;5.35;;;2.28;;
26102;SDS011;69760;49.380;8.998;2023-07-31T09:07:40;5.30;;;2.08;;
26102;SDS011;69760;49.380;8.998;2023-07-31T09:10:11;7.78;;;2.45;;
26102;SDS011;69760;49.380;8.998;2023-07-31T09:12:37;8.05;;;2.50;;
26102;SDS011;69760;49.380;8.998;2023-07-31T09:15:03;4.90;;;2.20;;
26102;SDS011;69760;49.380;8.998;2023-07-31T09:19:56;7.43;;;2.30;;
26102;SDS011;69760;49.380;8.998;2023-07-31T09:22:31;6.47;;;2.28;;
26102;SDS011;69760;49.380;8.998;2023-07-31T09:25:02;6.50;;;2.40;;
26102;SDS011;69760;49.380;8.998;2023-07-31T09:27:46;7.72;;;2.40;;
26102;SDS011;69760;49.380;8.998;2023-07-31T09:30:12;7.47;;;2.55;;
26102;SDS011;69760;49.380;8.998;2023-07-31T09:32:38;6.97;;;2.78;;
26102;SDS011;69760;49.380;8.998;2023-07-31T09:35:13;5.43;;;2.30;;
26102;SDS011;69760;49.380;8.998;2023-07-31T09:37:43;6.55;;;2.47;;
26102;SDS011;69760;49.380;8.998;2023-07-31T09:40:09;4.22;;;2.17;;
26102;SDS011;69760;49.380;8.998;2023-07-31T09:42:55;5.90;;;2.25;;
26102;SDS011;69760;49.380;8.998;2023-07-31T09:45:22;4.10;;;2.28;;
26102;SDS011;69760;49.380;8.998;2023-07-31T09:47:48;6.70;;;2.63;;
26102;SDS011;69760;49.380;8.998;2023-07-31T09:50:14;4.72;;;2.28;;
26102;SDS011;69760;49.380;8.998;2023-07-31T09:52:41;5.57;;;2.25;;
26102;SDS011;69760;49.380;8.998;2023-07-31T09:55:07;4.18;;;2.20;;
26102;SDS011;69760;49.380;8.998;2023-07-31T09:57:33;8.65;;;2.65;;
26102;SDS011;69760;49.380;8.998;2023-07-31T10:00:01;7.80;;;3.10;;
26102;SDS011;69760;49.380;8.998;2023-07-31T10:02:27;5.53;;;2.60;;
26102;SDS011;69760;49.380;8.998;2023-07-31T10:04:55;8.35;;;2.88;;
26102;SDS011;69760;49.380;8.998;2023-07-31T10:07:23;5.63;;;2.70;;
26102;SDS011;69760;49.380;8.998;2023-07-31T10:09:51;5.75;;;2.85;;
26102;SDS011;69760;49.380;8.998;2023-07-31T10:12:19;9.57;;;2.72;;
26102;SDS011;69760;49.380;8.998;2023-07-31T10:14:45;7.30;;;2.70;;
26102;SDS011;69760;49.380;8.998;2023-07-31T10:17:11;7.97;;;2.75;;
26102;SDS011;69760;49.380;8.998;2023-07-31T10:19:38;6.05;;;2.65;;
26102;SDS011;69760;49.380;8.998;2023-07-31T10:22:04;4.95;;;2.50;;
26102;SDS011;69760;49.380;8.998;2023-07-31T10:24:31;7.63;;;3.15;;
26102;SDS011;69760;49.380;8.998;2023-07-31T10:26:58;5.50;;;2.50;;
26102;SDS011;69760;49.380;8.998;2023-07-31T10:29:26;7.50;;;2.92;;
26102;SDS011;69760;49.380;8.998;2023-07-31T10:31:54;8.18;;;2.70;;
26102;SDS011;69760;49.380;8.998;2023-07-31T10:34:22;7.85;;;2.67;;
26102;SDS011;69760;49.380;8.998;2023-07-31T10:36:48;7.32;;;2.97;;
26102;SDS011;69760;49.380;8.998;2023-07-31T10:39:33;9.23;;;3.22;;
26102;SDS011;69760;49.380;8.998;2023-07-31T10:42:09;7.22;;;2.83;;
26102;SDS011;69760;49.380;8.998;2023-07-31T10:44:35;4.30;;;2.55;;
26102;SDS011;69760;49.380;8.998;2023-07-31T10:47:01;7.38;;;2.80;;
26102;SDS011;69760;49.380;8.998;2023-07-31T10:49:28;7.55;;;2.88;;
26102;SDS011;69760;49.380;8.998;2023-07-31T10:51:56;6.95;;;2.90;;
26102;SDS011;69760;49.380;8.998;2023-07-31T10:54:22;7.35;;;2.70;;
26102;SDS011;69760;49.380;8.998;2023-07-31T10:56:53;5.95;;;2.92;;
26102;SDS011;69760;49.380;8.998;2023-07-31T10:59:19;7.75;;;3.00;;
26102;SDS011;69760;49.380;8.998;2023-07-31T11:01:52;8.80;;;2.97;;
26102;SDS011;69760;49.380;8.998;2023-07-31T11:04:23;7.15;;;2.55;;
26102;SDS011;69760;49.380;8.998;2023-07-31T11:07:00;6.50;;;2.58;;
26102;SDS011;69760;49.380;8.998;2023-07-31T11:09:28;8.25;;;2.78;;
26102;SDS011;69760;49.380;8.998;2023-07-31T11:11:55;7.78;;;2.70;;
26102;SDS011;69760;49.380;8.998;2023-07-31T11:14:21;5.15;;;2.70;;
26102;SDS011;69760;49.380;8.998;2023-07-31T11:16:49;8.63;;;2.67;;
26102;SDS011;69760;49.380;8.998;2023-07-31T11:19:25;6.03;;;2.78;;
26102;SDS011;69760;49.380;8.998;2023-07-31T11:21:54;8.80;;;2.85;;
26102;SDS011;69760;49.380;8.998;2023-07-31T11:24:20;5.53;;;2.72;;
26102;SDS011;69760;49.380;8.998;2023-07-31T11:26:49;8.55;;;3.05;;
26102;SDS011;69760;49.380;8.998;2023-07-31T11:29:20;6.65;;;2.90;;
26102;SDS011;69760;49.380;8.998;2023-07-31T11:31:52;6.00;;;2.65;;
26102;SDS011;69760;49.380;8.998;2023-07-31T11:34:18;7.38;;;2.80;;
26102;SDS011;69760;49.380;8.998;2023-07-31T11:36:54;9.32;;;2.60;;
26102;SDS011;69760;49.380;8.998;2023-07-31T11:39:20;5.10;;;2.80;;
26102;SDS011;69760;49.380;8.998;2023-07-31T11:41:46;6.32;;;2.75;;
26102;SDS011;69760;49.380;8.998;2023-07-31T11:44:12;6.43;;;2.78;;
26102;SDS011;69760;49.380;8.998;2023-07-31T11:46:38;7.72;;;2.67;;
26102;SDS011;69760;49.380;8.998;2023-07-31T11:49:04;7.10;;;2.70;;
26102;SDS011;69760;49.380;8.998;2023-07-31T11:51:30;8.43;;;2.92;;
26102;SDS011;69760;49.380;8.998;2023-07-31T11:53:57;6.28;;;2.80;;
26102;SDS011;69760;49.380;8.998;2023-07-31T11:56:25;8.23;;;2.80;;
26102;SDS011;69760;49.380;8.998;2023-07-31T11:58:53;6.38;;;2.50;;
26102;SDS011;69760;49.380;8.998;2023-07-31T12:01:22;7.10;;;2.67;;
26102;SDS011;69760;49.380;8.998;2023-07-31T12:03:48;5.65;;;2.80;;
26102;SDS011;69760;49.380;8.998;2023-07-31T12:06:15;7.60;;;2.95;;
26102;SDS011;69760;49.380;8.998;2023-07-31T12:08:40;5.20;;;2.38;;
26102;SDS011;69760;49.380;8.998;2023-07-31T12:11:08;9.98;;;3.00;;
26102;SDS011;69760;49.380;8.998;2023-07-31T12:13:38;4.80;;;2.90;;
26102;SDS011;69760;49.380;8.998;2023-07-31T12:16:04;6.50;;;2.95;;
26102;SDS011;69760;49.380;8.998;2023-07-31T12:18:33;7.68;;;2.72;;
26102;SDS011;69760;49.380;8.998;2023-07-31T12:21:01;9.70;;;3.03;;
26102;SDS011;69760;49.380;8.998;2023-07-31T12:23:32;6.97;;;2.90;;
26102;SDS011;69760;49.380;8.998;2023-07-31T12:26:02;6.47;;;2.83;;
26102;SDS011;69760;49.380;8.998;2023-07-31T12:28:29;4.97;;;2.60;;
26102;SDS011;69760;49.380;8.998;2023-07-31T12:30:59;4.22;;;2.45;;
26102;SDS011;69760;49.380;8.998;2023-07-31T12:33:30;7.43;;;2.67;;
26102;SDS011;69760;49.380;8.998;2023-07-31T12:35:57;8.02;;;2.90;;
26102;SDS011;69760;49.380;8.998;2023-07-31T12:38:23;7.88;;;2.83;;
26102;SDS011;69760;49.380;8.998;2023-07-31T12:40:49;8.93;;;2.97;;
26102;SDS011;69760;49.380;8.998;2023-07-31T12:43:14;7.93;;;3.08;;
26102;SDS011;69760;49.380;8.998;2023-07-31T12:45:40;5.85;;;2.50;;
26102;SDS011;69760;49.380;8.998;2023-07-31T12:48:06;7.90;;;2.75;;
26102;SDS011;69760;49.380;8.998;2023-07-31T12:50:31;7.78;;;2.72;;
26102;SDS011;69760;49.380;8.998;2023-07-31T12:52:57;6.10;;;2.85;;
26102;SDS011;69760;49.380;8.998;2023-07-31T12:55:23;7.15;;;2.88;;
26102;SDS011;69760;49.380;8.998;2023-07-31T12:57:49;9.82;;;2.92;;
26102;SDS011;69760;49.380;8.998;2023-07-31T13:00:15;8.43;;;2.65;;
26102;SDS011;69760;49.380;8.998;2023-07-31T13:02:41;6.75;;;2.78;;
26102;SDS011;69760;49.380;8.998;2023-07-31T13:05:07;8.10;;;2.63;;
26102;SDS011;69760;49.380;8.998;2023-07-31T13:07:33;7.03;;;2.67;;
26102;SDS011;69760;49.380;8.998;2023-07-31T13:09:58;7.68;;;3.15;;
26102;SDS011;69760;49.380;8.998;2023-07-31T13:12:24;7.25;;;2.90;;
26102;SDS011;69760;49.380;8.998;2023-07-31T13:14:50;7.03;;;2.65;;
26102;SDS011;69760;49.380;8.998;2023-07-31T13:17:15;5.50;;;3.13;;
26102;SDS011;69760;49.380;8.998;2023-07-31T13:19:41;4.93;;;2.90;;
26102;SDS011;69760;49.380;8.998;2023-07-31T13:22:07;6.40;;;3.20;;
26102;SDS011;69760;49.380;8.998;2023-07-31T13:24:33;6.85;;;2.78;;
26102;SDS011;69760;49.380;8.998;2023-07-31T13:26:58;4.70;;;2.58;;
26102;SDS011;69760;49.380;8.998;2023-07-31T13:29:24;7.35;;;2.80;;
26102;SDS011;69760;49.380;8.998;2023-07-31T13:31:50;8.32;;;3.15;;
26102;SDS011;69760;49.380;8.998;2023-07-31T13:34:17;6.97;;;3.00;;
26102;SDS011;69760;49.380;8.998;2023-07-31T13:36:42;4.60;;;2.58;;
26102;SDS011;69760;49.380;8.998;2023-07-31T13:39:08;5.53;;;2.55;;
26102;SDS011;69760;49.380;8.998;2023-07-31T13:41:33;5.80;;;2.85;;
26102;SDS011;69760;49.380;8.998;2023-07-31T13:43:59;4.63;;;2.78;;
26102;SDS011;69760;49.380;8.998;2023-07-31T13:46:24;9.52;;;2.90;;
26102;SDS011;69760;49.380;8.998;2023-07-31T13:48:50;7.50;;;2.80;;
26102;SDS011;69760;49.380;8.998;2023-07-31T13:51:19;6.63;;;2.63;;
26102;SDS011;69760;49.380;8.998;2023-07-31T13:53:45;7.55;;;2.88;;
26102;SDS011;69760;49.380;8.998;2023-07-31T13:56:10;6.97;;;2.53;;
26102;SDS011;69760;49.380;8.998;2023-07-31T13:58:36;6.68;;;2.63;;
26102;SDS011;69760;49.380;8.998;2023-07-31T14:01:02;5.03;;;2.65;;
26102;SDS011;69760;49.380;8.998;2023-07-31T14:03:28;6.30;;;2.78;;
26102;SDS011;69760;49.380;8.998;2023-07-31T14:05:54;5.15;;;2.50;;
26102;SDS011;69760;49.380;8.998;2023-07-31T14:08:21;7.97;;;3.05;;
26102;SDS011;69760;49.380;8.998;2023-07-31T14:10:46;6.15;;;2.72;;
26102;SDS011;69760;49.380;8.998;2023-07-31T14:13:12;7.68;;;2.85;;
26102;SDS011;69760;49.380;8.998;2023-07-31T14:15:39;6.75;;;2.55;;
26102;SDS011;69760;49.380;8.998;2023-07-31T14:18:07;4.53;;;2.70;;
26102;SDS011;69760;49.380;8.998;2023-07-31T14:20:32;5.80;;;2.72;;
26102;SDS011;69760;49.380;8.998;2023-07-31T14:22:58;6.38;;;2.75;;
26102;SDS011;69760;49.380;8.998;2023-07-31T14:25:24;9.13;;;3.00;;
26102;SDS011;69760;49.380;8.998;2023-07-31T14:27:49;5.93;;;2.75;;
26102;SDS011;69760;49.380;8.998;2023-07-31T14:30:15;9.50;;;2.67;;
26102;SDS011;69760;49.380;8.998;2023-07-31T14:32:42;6.18;;;2.60;;
26102;SDS011;69760;49.380;8.998;2023-07-31T14:35:07;6.20;;;2.63;;
26102;SDS011;69760;49.380;8.998;2023-07-31T14:37:39;6.40;;;2.63;;
26102;SDS011;69760;49.380;8.998;2023-07-31T14:40:07;4.78;;;2.60;;
26102;SDS011;69760;49.380;8.998;2023-07-31T14:42:33;7.38;;;2.63;;
26102;SDS011;69760;49.380;8.998;2023-07-31T14:44:59;5.53;;;2.50;;
26102;SDS011;69760;49.380;8.998;2023-07-31T14:47:25;6.28;;;2.97;;
26102;SDS011;69760;49.380;8.998;2023-07-31T14:49:50;5.50;;;2.70;;
26102;SDS011;69760;49.380;8.998;2023-07-31T14:52:16;5.65;;;2.80;;
26102;SDS011;69760;49.380;8.998;2023-07-31T14:54:41;8.27;;;2.63;;
26102;SDS011;69760;49.380;8.998;2023-07-31T14:57:07;5.82;;;2.33;;
26102;SDS011;69760;49.380;8.998;2023-07-31T14:59:33;5.00;;;2.72;;
26102;SDS011;69760;49.380;8.998;2023-07-31T15:01:59;4.75;;;2.55;;
26102;SDS011;69760;49.380;8.998;2023-07-31T15:04:24;4.13;;;2.33;;
26102;SDS011;69760;49.380;8.998;2023-07-31T15:06:50;7.90;;;2.65;;
26102;SDS011;69760;49.380;8.998;2023-07-31T15:09:17;5.82;;;2.92;;
26102;SDS011;69760;49.380;8.998;2023-07-31T15:11:42;6.78;;;2.63;;
26102;SDS011;69760;49.380;8.998;2023-07-31T15:14:08;5.32;;;2.53;;
26102;SDS011;69760;49.380;8.998;2023-07-31T15:16:33;5.60;;;2.88;;
26102;SDS011;69760;49.380;8.998;2023-07-31T15:18:59;6.13;;;2.40;;
26102;SDS011;69760;49.380;8.998;2023-07-31T15:21:25;6.32;;;2.65;;
26102;SDS011;69760;49.380;8.998;2023-07-31T15:23:50;4.75;;;2.35;;
26102;SDS011;69760;49.380;8.998;2023-07-31T15:26:16;7.55;;;2.50;;
26102;SDS011;69760;49.380;8.998;2023-07-31T15:28:41;6.80;;;2.60;;
26102;SDS011;69760;49.380;8.998;2023-07-31T15:31:07;5.45;;;2.58;;
26102;SDS011;69760;49.380;8.998;2023-07-31T15:33:34;3.20;;;2.20;;
26102;SDS011;69760;49.380;8.998;2023-07-31T15:35:59;9.07;;;2.63;;
26102;SDS011;69760;49.380;8.998;2023-07-31T15:38:25;4.35;;;2.55;;
26102;SDS011;69760;49.380;8.998;2023-07-31T15:40:50;5.65;;;2.60;;
26102;SDS011;69760;49.380;8.998;2023-07-31T15:43:16;6.78;;;2.80;;
26102;SDS011;69760;49.380;8.998;2023-07-31T15:45:44;8.20;;;2.65;;
26102;SDS011;69760;49.380;8.998;2023-07-31T15:48:09;7.45;;;3.03;;
26102;SDS011;69760;49.380;8.998;2023-07-31T15:50:35;6.13;;;2.50;;
26102;SDS011;69760;49.380;8.998;2023-07-31T15:53:01;7.70;;;2.80;;
26102;SDS011;69760;49.380;8.998;2023-07-31T15:55:26;5.30;;;2.80;;
26102;SDS011;69760;49.380;8.998;2023-07-31T15:57:52;5.88;;;2.50;;
26102;SDS011;69760;49.380;8.998;2023-07-31T16:00:18;6.20;;;2.78;;
26102;SDS011;69760;49.380;8.998;2023-07-31T16:02:44;7.05;;;2.70;;
26102;SDS011;69760;49.380;8.998;2023-07-31T16:05:09;4.88;;;2.58;;
26102;SDS011;69760;49.380;8.998;2023-07-31T16:07:35;6.32;;;2.58;;
26102;SDS011;69760;49.380;8.998;2023-07-31T16:10:01;5.40;;;2.70;;
26102;SDS011;69760;49.380;8.998;2023-07-31T16:12:26;8.05;;;2.83;;
26102;SDS011;69760;49.380;8.998;2023-07-31T16:14:52;9.32;;;2.70;;
26102;SDS011;69760;49.380;8.998;2023-07-31T16:17:18;4.45;;;2.65;;
26102;SDS011;69760;49.380;8.998;2023-07-31T16:19:43;6.28;;;2.63;;
26102;SDS011;69760;49.380;8.998;2023-07-31T16:22:09;6.93;;;2.70;;
26102;SDS011;69760;49.380;8.998;2023-07-31T16:24:35;8.85;;;2.72;;
26102;SDS011;69760;49.380;8.998;2023-07-31T16:27:01;6.90;;;2.88;;
26102;SDS011;69760;49.380;8.998;2023-07-31T16:29:27;7.82;;;2.92;;
26102;SDS011;69760;49.380;8.998;2023-07-31T16:31:53;6.43;;;3.00;;
26102;SDS011;69760;49.380;8.998;2023-07-31T16:34:18;6.60;;;3.33;;
26102;SDS011;69760;49.380;8.998;2023-07-31T16:36:44;6.45;;;2.92;;
26102;SDS011;69760;49.380;8.998;2023-07-31T16:39:09;7.70;;;2.60;;
26102;SDS011;69760;49.380;8.998;2023-07-31T16:41:35;4.85;;;2.55;;
26102;SDS011;69760;49.380;8.998;2023-07-31T16:44:00;4.38;;;2.47;;
26102;SDS011;69760;49.380;8.998;2023-07-31T16:46:26;5.28;;;2.33;;
26102;SDS011;69760;49.380;8.998;2023-07-31T16:48:52;5.53;;;3.00;;
26102;SDS011;69760;49.380;8.998;2023-07-31T16:51:18;6.00;;;2.67;;
26102;SDS011;69760;49.380;8.998;2023-07-31T16:53:45;5.50;;;2.92;;
26102;SDS011;69760;49.380;8.998;2023-07-31T16:56:11;6.70;;;2.80;;
26102;SDS011;69760;49.380;8.998;2023-07-31T16:58:36;8.57;;;2.63;;
26102;SDS011;69760;49.380;8.998;2023-07-31T17:01:02;5.25;;;2.58;;
26102;SDS011;69760;49.380;8.998;2023-07-31T17:03:28;6.55;;;2.72;;
26102;SDS011;69760;49.380;8.998;2023-07-31T17:05:54;8.18;;;2.45;;
26102;SDS011;69760;49.380;8.998;2023-07-31T17:08:19;10.10;;;2.67;;
26102;SDS011;69760;49.380;8.998;2023-07-31T17:10:45;6.13;;;2.33;;
26102;SDS011;69760;49.380;8.998;2023-07-31T17:13:11;7.47;;;2.60;;
26102;SDS011;69760;49.380;8.998;2023-07-31T17:15:36;5.30;;;2.75;;
26102;SDS011;69760;49.380;8.998;2023-07-31T17:18:02;5.15;;;2.33;;
26102;SDS011;69760;49.380;8.998;2023-07-31T17:20:28;5.22;;;2.65;;
26102;SDS011;69760;49.380;8.998;2023-07-31T17:22:57;5.47;;;2.50;;
26102;SDS011;69760;49.380;8.998;2023-07-31T17:25:22;5.68;;;2.58;;
26102;SDS011;69760;49.380;8.998;2023-07-31T17:27:48;7.30;;;2.90;;
26102;SDS011;69760;49.380;8.998;2023-07-31T17:30:13;7.45;;;3.00;;
26102;SDS011;69760;49.380;8.998;2023-07-31T17:32:39;7.95;;;3.10;;
26102;SDS011;69760;49.380;8.998;2023-07-31T17:35:05;5.60;;;2.60;;
26102;SDS011;69760;49.380;8.998;2023-07-31T17:37:30;5.72;;;2.53;;
26102;SDS011;69760;49.380;8.998;2023-07-31T17:39:56;7.13;;;2.63;;
26102;SDS011;69760;49.380;8.998;2023-07-31T17:42:22;8.45;;;3.13;;
26102;SDS011;69760;49.380;8.998;2023-07-31T17:44:47;6.07;;;2.85;;
26102;SDS011;69760;49.380;8.998;2023-07-31T17:47:13;5.60;;;2.60;;
26102;SDS011;69760;49.380;8.998;2023-07-31T17:49:38;6.25;;;2.60;;
26102;SDS011;69760;49.380;8.998;2023-07-31T17:52:04;6.65;;;3.00;;
26102;SDS011;69760;49.380;8.998;2023-07-31T17:54:30;5.78;;;2.75;;
26102;SDS011;69760;49.380;8.998;2023-07-31T17:56:56;6.32;;;2.78;;
26102;SDS011;69760;49.380;8.998;2023-07-31T17:59:22;7.10;;;3.05;;
26102;SDS011;69760;49.380;8.998;2023-07-31T18:01:47;6.18;;;2.75;;
26102;SDS011;69760;49.380;8.998;2023-07-31T18:04:15;5.97;;;2.90;;
26102;SDS011;69760;49.380;8.998;2023-07-31T18:06:41;7.82;;;3.30;;
26102;SDS011;69760;49.380;8.998;2023-07-31T18:09:07;5.03;;;3.13;;
26102;SDS011;69760;49.380;8.998;2023-07-31T18:11:34;4.72;;;2.63;;
26102;SDS011;69760;49.380;8.998;2023-07-31T18:14:00;4.85;;;3.10;;
26102;SDS011;69760;49.380;8.998;2023-07-31T18:16:26;5.00;;;2.90;;
26102;SDS011;69760;49.380;8.998;2023-07-31T18:18:51;8.13;;;3.35;;
26102;SDS011;69760;49.380;8.998;2023-07-31T18:21:17;8.30;;;3.90;;
26102;SDS011;69760;49.380;8.998;2023-07-31T18:23:42;10.30;;;3.75;;